Time;durP1;ratioP1;P1;durP2;ratioP2;P2;SDS_P1;SDS_P2;PMS_P1;PMS_P2;Temp;Humidity;BMP_temperature;BMP_pressure;BME280_temperature;BME280_humidity;BME280_pressure;Samples;Min_cycle;Max_cycle;Signal;HPM_P1;HPM_P2
2022/03/08 00:02:07;;;;;;;6.68;5.95;;;16.40;59.60;;;;;;5066187;28;20143;-19
2022/03/08 00:04:33;;;;;;;6.10;5.60;;;16.40;59.70;;;;;;5068301;28;20139;-20
2022/03/08 00:06:59;;;;;;;6.72;6.13;;;16.30;59.50;;;;;;5063770;28;20601;-19
2022/03/08 00:09:24;;;;;;;6.57;5.95;;;16.40;59.50;;;;;;5067803;28;20047;-19
2022/03/08 00:11:50;;;;;;;5.90;5.35;;;16.40;59.60;;;;;;5065739;28;20063;-19
2022/03/08 00:14:15;;;;;;;6.57;5.97;;;16.40;59.50;;;;;;5073114;28;20120;-19
2022/03/08 00:16:41;;;;;;;6.45;5.90;;;16.40;59.70;;;;;;5065733;28;20049;-19
2022/03/08 00:19:07;;;;;;;6.70;6.18;;;16.40;59.60;;;;;;5064442;28;20055;-19
2022/03/08 00:21:32;;;;;;;5.95;5.55;;;16.40;59.60;;;;;;5067628;28;20056;-19
2022/03/08 00:23:58;;;;;;;5.53;5.13;;;16.30;59.60;;;;;;5066191;28;20052;-19
2022/03/08 00:26:23;;;;;;;7.80;5.60;;;16.40;59.50;;;;;;5069754;28;20044;-19
2022/03/08 00:28:49;;;;;;;5.88;5.38;;;16.30;59.50;;;;;;5059393;28;20182;-19
2022/03/08 00:31:15;;;;;;;6.05;5.55;;;16.30;59.60;;;;;;5063279;28;20044;-19
2022/03/08 00:33:41;;;;;;;6.13;5.53;;;16.30;59.70;;;;;;5068490;28;20036;-19
2022/03/08 00:36:06;;;;;;;5.80;5.40;;;16.30;59.50;;;;;;5068250;28;20063;-19
2022/03/08 00:38:32;;;;;;;5.47;5.05;;;16.30;59.50;;;;;;5057004;28;20120;-19
2022/03/08 00:40:58;;;;;;;5.72;5.28;;;16.30;59.50;;;;;;5056296;28;20044;-19
2022/03/08 00:43:23;;;;;;;5.57;5.28;;;16.30;59.50;;;;;;5056137;28;20047;-19
2022/03/08 00:45:49;;;;;;;6.00;5.40;;;16.30;59.70;;;;;;5084660;28;20562;-19
2022/03/08 00:48:14;;;;;;;5.95;5.45;;;16.20;59.70;;;;;;5070545;28;20405;-19
2022/03/08 00:50:40;;;;;;;5.72;5.30;;;16.20;59.80;;;;;;5057207;28;20128;-19
2022/03/08 00:53:06;;;;;;;5.60;5.20;;;16.20;59.60;;;;;;5057424;28;20068;-19
2022/03/08 00:55:31;;;;;;;5.88;5.47;;;16.30;59.60;;;;;;5057671;28;20557;-19
2022/03/08 00:57:57;;;;;;;5.97;5.60;;;16.30;59.40;;;;;;5056756;28;20401;-19
2022/03/08 01:00:24;;;;;;;5.22;4.93;;;16.30;59.50;;;;;;5057594;28;20041;-19
2022/03/08 01:02:50;;;;;;;5.57;5.18;;;16.30;59.50;;;;;;5056963;28;20040;-19
2022/03/08 01:05:15;;;;;;;5.47;5.03;;;16.20;59.40;;;;;;5067223;28;20576;-19
2022/03/08 01:07:41;;;;;;;5.57;5.18;;;16.20;59.40;;;;;;5076420;28;20055;-19
2022/03/08 01:10:09;;;;;;;5.05;4.70;;;16.20;59.40;;;;;;5076444;28;20052;-19
2022/03/08 01:12:34;;;;;;;5.05;4.75;;;16.20;59.50;;;;;;5061221;28;20048;-19
2022/03/08 01:15:01;;;;;;;5.40;5.05;;;16.20;59.50;;;;;;5078182;28;20051;-19
2022/03/08 01:17:27;;;;;;;5.35;4.97;;;16.20;59.50;;;;;;5074752;28;20040;-19
2022/03/08 01:19:52;;;;;;;5.47;5.07;;;16.10;59.50;;;;;;5056142;28;20111;-19
2022/03/08 01:22:18;;;;;;;4.80;4.50;;;16.10;59.60;;;;;;5056844;28;20087;-19
2022/03/08 01:24:43;;;;;;;5.32;4.85;;;16.10;59.50;;;;;;5056342;28;20049;-19
2022/03/08 01:27:09;;;;;;;6.03;5.63;;;16.10;59.40;;;;;;5057064;28;20044;-19
2022/03/08 01:29:35;;;;;;;5.45;5.05;;;16.10;59.50;;;;;;5073720;28;20048;-19
2022/03/08 01:32:00;;;;;;;5.55;5.15;;;16.10;59.70;;;;;;5074303;28;20052;-19
2022/03/08 01:34:26;;;;;;;5.28;4.88;;;16.10;59.60;;;;;;5066197;28;20040;-19
2022/03/08 01:36:51;;;;;;;5.80;5.40;;;16.00;59.60;;;;;;5074817;28;20476;-19
2022/03/08 01:39:17;;;;;;;4.68;4.38;;;16.10;59.50;;;;;;5065658;28;20048;-19
2022/03/08 01:41:43;;;;;;;5.38;4.97;;;16.00;59.50;;;;;;5068838;28;20041;-19
2022/03/08 01:44:09;;;;;;;4.95;4.55;;;16.00;59.50;;;;;;5076848;28;20068;-19
2022/03/08 01:46:36;;;;;;;4.45;4.15;;;16.00;59.60;;;;;;5094769;28;20168;-19
2022/03/08 01:49:05;;;;;;;5.10;4.72;;;16.10;59.40;;;;;;5055900;28;20052;-19
2022/03/08 01:51:31;;;;;;;5.07;4.78;;;16.10;59.50;;;;;;5056628;28;20045;-19
2022/03/08 01:53:56;;;;;;;4.95;4.55;;;16.00;59.50;;;;;;5054374;28;20056;-19
2022/03/08 01:56:22;;;;;;;5.13;4.63;;;16.00;59.40;;;;;;5056239;28;20386;-19
2022/03/08 01:58:47;;;;;;;5.20;4.80;;;16.00;59.30;;;;;;5070729;28;20082;-19
2022/03/08 02:01:14;;;;;;;4.97;4.68;;;16.00;59.40;;;;;;5074426;28;20068;-19
2022/03/08 02:03:39;;;;;;;5.10;4.70;;;16.00;59.40;;;;;;5053450;28;20048;-19
2022/03/08 02:06:05;;;;;;;4.65;4.32;;;16.00;59.40;;;;;;5056016;28;20041;-19
2022/03/08 02:08:30;;;;;;;4.97;4.57;;;16.00;59.30;;;;;;5055849;28;20045;-19
2022/03/08 02:10:56;;;;;;;5.20;4.80;;;16.00;59.30;;;;;;5055555;28;20033;-19
2022/03/08 02:13:22;;;;;;;5.20;4.90;;;16.00;59.40;;;;;;5057706;28;20128;-19
2022/03/08 02:15:49;;;;;;;4.97;4.60;;;16.00;59.90;;;;;;5080984;28;20044;-19
2022/03/08 02:18:14;;;;;;;5.00;4.70;;;16.00;59.20;;;;;;5061985;28;20037;-19
2022/03/08 02:20:40;;;;;;;4.50;4.07;;;16.00;59.20;;;;;;5055873;28;20576;-19
2022/03/08 02:23:05;;;;;;;4.97;4.57;;;16.00;59.20;;;;;;5055074;28;20044;-19
2022/03/08 02:25:31;;;;;;;4.93;4.60;;;16.00;59.40;;;;;;5066696;28;20036;-19
2022/03/08 02:27:56;;;;;;;4.78;4.47;;;16.00;59.20;;;;;;5055339;28;20041;-19
2022/03/08 02:30:23;;;;;;;5.30;4.90;;;16.00;59.20;;;;;;5055942;28;20091;-19
2022/03/08 02:32:49;;;;;;;4.70;4.30;;;15.90;59.30;;;;;;5055308;28;20071;-19
2022/03/08 02:35:16;;;;;;;4.70;4.40;;;16.00;59.30;;;;;;5055837;28;20167;-19
2022/03/08 02:37:43;;;;;;;4.25;3.97;;;15.90;59.10;;;;;;5054759;28;20072;-19
2022/03/08 02:40:11;;;;;;;4.50;4.30;;;15.90;59.40;;;;;;5055622;28;20045;-19
2022/03/08 02:42:37;;;;;;;4.50;4.20;;;15.90;59.40;;;;;;5063328;28;20044;-19
2022/03/08 02:45:03;;;;;;;3.90;3.70;;;15.90;59.30;;;;;;5082639;28;20040;-19
2022/03/08 02:47:29;;;;;;;4.68;4.38;;;15.90;59.30;;;;;;5095788;28;20043;-19
2022/03/08 02:49:55;;;;;;;4.22;3.92;;;15.90;59.30;;;;;;5071006;28;20132;-19
2022/03/08 02:52:20;;;;;;;4.25;3.95;;;15.90;59.20;;;;;;5057478;28;20049;-19
2022/03/08 02:54:46;;;;;;;4.65;4.35;;;15.90;59.10;;;;;;5054721;28;20052;-19
2022/03/08 02:57:11;;;;;;;4.50;4.20;;;15.90;59.30;;;;;;5066369;28;20049;-19
2022/03/08 02:59:37;;;;;;;4.18;3.95;;;15.90;59.30;;;;;;5055601;28;20044;-19
2022/03/08 03:02:03;;;;;;;4.20;3.90;;;15.90;59.10;;;;;;5054817;28;20056;-19
2022/03/08 03:04:28;;;;;;;4.32;4.03;;;15.90;59.00;;;;;;5055534;28;20044;-19
2022/03/08 03:06:54;;;;;;;4.50;4.20;;;15.90;59.10;;;;;;5054643;28;20159;-19
2022/03/08 03:09:20;;;;;;;4.45;4.25;;;16.00;59.10;;;;;;5054854;28;20458;-19
2022/03/08 03:11:45;;;;;;;4.32;4.03;;;15.90;59.10;;;;;;5054760;28;20476;-19
2022/03/08 03:14:11;;;;;;;4.15;3.85;;;15.90;59.10;;;;;;5068647;28;20040;-18
2022/03/08 03:16:37;;;;;;;4.10;3.80;;;15.90;58.90;;;;;;5055297;28;20049;-19
2022/03/08 03:19:03;;;;;;;3.20;3.00;;;15.90;58.90;;;;;;5054277;28;20128;-19
2022/03/08 03:21:28;;;;;;;3.88;3.65;;;15.90;59.00;;;;;;5054998;28;20053;-18
2022/03/08 03:23:54;;;;;;;3.97;3.67;;;16.00;59.00;;;;;;5054484;28;20041;-19
2022/03/08 03:26:19;;;;;;;4.00;3.80;;;15.90;58.90;;;;;;5055169;28;20072;-19
2022/03/08 03:28:45;;;;;;;4.40;4.00;;;15.90;59.00;;;;;;5054168;28;20128;-19
2022/03/08 03:31:11;;;;;;;4.55;4.28;;;15.90;59.00;;;;;;5054956;28;20049;-19
2022/03/08 03:33:36;;;;;;;4.00;3.80;;;15.90;59.00;;;;;;5055223;28;20059;-19
2022/03/08 03:36:02;;;;;;;3.70;3.50;;;15.90;58.90;;;;;;5055201;28;20494;-19
2022/03/08 03:38:27;;;;;;;4.18;3.88;;;15.90;58.90;;;;;;5065189;28;20144;-19
2022/03/08 03:40:53;;;;;;;3.65;3.45;;;15.90;58.90;;;;;;5054418;28;20159;-19
2022/03/08 03:43:18;;;;;;;4.00;3.80;;;15.90;59.10;;;;;;5059487;28;20041;-19
2022/03/08 03:45:44;;;;;;;3.85;3.65;;;15.90;58.90;;;;;;5081969;28;20098;-19
2022/03/08 03:48:09;;;;;;;3.85;3.65;;;15.90;59.00;;;;;;5093302;28;20036;-19
2022/03/08 03:50:35;;;;;;;3.40;3.20;;;15.80;59.00;;;;;;5066207;28;20041;-19
2022/03/08 03:53:01;;;;;;;3.90;3.70;;;15.80;59.00;;;;;;5053710;28;20072;-19
2022/03/08 03:55:26;;;;;;;4.20;3.90;;;15.80;58.90;;;;;;5057393;28;20079;-19
2022/03/08 03:57:52;;;;;;;3.78;3.58;;;15.90;59.00;;;;;;5063012;28;20398;-19
2022/03/08 04:00:17;;;;;;;4.20;3.90;;;15.90;59.00;;;;;;5054933;28;20044;-19
2022/03/08 04:02:43;;;;;;;4.60;4.30;;;15.80;59.00;;;;;;5054880;28;20056;-19
2022/03/08 04:05:09;;;;;;;4.15;3.85;;;15.90;59.00;;;;;;5054267;28;20052;-19
2022/03/08 04:07:35;;;;;;;3.97;3.67;;;15.80;59.00;;;;;;5054553;28;20044;-19
2022/03/08 04:10:02;;;;;;;3.58;3.38;;;15.80;58.90;;;;;;5054093;28;20402;-19
2022/03/08 04:12:28;;;;;;;3.75;3.55;;;15.80;59.70;;;;;;5055702;28;20800;-19
2022/03/08 04:14:54;;;;;;;3.97;3.67;;;15.80;58.90;;;;;;5077718;28;20041;-19
2022/03/08 04:17:19;;;;;;;3.90;3.70;;;15.80;59.00;;;;;;5057613;28;20151;-19
2022/03/08 04:19:45;;;;;;;3.85;3.65;;;15.80;58.80;;;;;;5053217;28;20049;-19
2022/03/08 04:22:11;;;;;;;3.70;3.40;;;15.80;59.00;;;;;;5056105;28;20041;-19
2022/03/08 04:24:36;;;;;;;4.40;4.10;;;15.80;59.00;;;;;;5060326;28;20049;-19
2022/03/08 04:27:03;;;;;;;3.58;3.38;;;15.80;59.00;;;;;;5071582;28;20056;-19
2022/03/08 04:29:29;;;;;;;3.70;3.50;;;15.70;59.00;;;;;;5078052;28;20132;-19
2022/03/08 04:31:55;;;;;;;3.88;3.67;;;15.80;59.00;;;;;;5077362;28;20068;-19
2022/03/08 04:34:21;;;;;;;3.78;3.58;;;15.80;59.00;;;;;;5061482;28;20045;-19
2022/03/08 04:36:46;;;;;;;3.50;3.30;;;15.80;58.90;;;;;;5057962;28;20087;-19
2022/03/08 04:39:12;;;;;;;3.83;3.63;;;15.80;59.00;;;;;;5056823;28;20045;-19
2022/03/08 04:41:37;;;;;;;4.65;4.35;;;15.80;59.00;;;;;;5068538;28;20056;-19
2022/03/08 04:44:03;;;;;;;3.80;3.60;;;15.80;59.00;;;;;;5076905;28;20052;-19
2022/03/08 04:46:29;;;;;;;3.58;3.35;;;15.80;59.00;;;;;;5084954;28;20040;-19
2022/03/08 04:48:55;;;;;;;3.80;3.50;;;15.70;59.00;;;;;;5057125;28;20063;-19
2022/03/08 04:51:20;;;;;;;3.38;3.17;;;15.80;59.00;;;;;;5057779;28;20103;-19
2022/03/08 04:53:46;;;;;;;3.60;3.40;;;15.80;58.90;;;;;;5057205;28;20073;-19
2022/03/08 04:56:12;;;;;;;3.53;3.33;;;15.80;59.00;;;;;;5057394;28;20073;-19
2022/03/08 04:58:37;;;;;;;3.60;3.30;;;15.70;59.00;;;;;;5057385;28;20049;-19
2022/03/08 05:01:03;;;;;;;3.17;3.08;;;15.80;59.10;;;;;;5056991;28;20049;-19
2022/03/08 05:03:28;;;;;;;3.88;3.60;;;15.70;59.00;;;;;;5057548;28;20560;-19
2022/03/08 05:05:54;;;;;;;3.58;3.38;;;15.70;59.00;;;;;;5056796;28;20166;-19
2022/03/08 05:08:19;;;;;;;3.22;3.13;;;15.80;58.90;;;;;;5057148;28;20094;-19
2022/03/08 05:10:45;;;;;;;2.90;2.80;;;15.70;59.00;;;;;;5057376;28;20555;-19
2022/03/08 05:13:11;;;;;;;3.28;3.15;;;15.70;59.10;;;;;;5056388;28;20040;-19
2022/03/08 05:15:36;;;;;;;3.72;3.53;;;15.70;59.00;;;;;;5096085;28;20036;-19
2022/03/08 05:18:02;;;;;;;3.72;3.53;;;15.70;59.00;;;;;;5067253;28;20043;-19
2022/03/08 05:20:28;;;;;;;3.42;3.22;;;15.70;59.60;;;;;;5057119;28;20063;-19
2022/03/08 05:22:54;;;;;;;3.70;3.50;;;15.70;59.00;;;;;;5076041;28;20044;-19
2022/03/08 05:25:20;;;;;;;3.20;3.00;;;15.70;59.00;;;;;;5069799;28;20068;-19
2022/03/08 05:27:45;;;;;;;3.53;3.33;;;15.80;59.00;;;;;;5057058;28;20109;-19
2022/03/08 05:30:12;;;;;;;3.42;3.22;;;15.70;59.10;;;;;;5056382;28;20128;-19
2022/03/08 05:32:38;;;;;;;3.30;3.17;;;15.70;59.10;;;;;;5056988;28;20045;-19
2022/03/08 05:35:03;;;;;;;3.38;3.17;;;15.70;59.10;;;;;;5056396;28;20045;-19
2022/03/08 05:37:29;;;;;;;3.28;3.13;;;15.70;59.10;;;;;;5056557;28;20474;-19
2022/03/08 05:39:55;;;;;;;3.60;3.40;;;15.70;59.00;;;;;;5060076;28;20037;-19
2022/03/08 05:42:20;;;;;;;3.42;3.22;;;15.70;59.10;;;;;;5076640;28;20788;-19
2022/03/08 05:44:46;;;;;;;3.20;3.00;;;15.70;59.00;;;;;;5072344;28;20041;-19
2022/03/08 05:47:11;;;;;;;3.08;2.88;;;15.70;59.00;;;;;;5066031;28;20433;-19
2022/03/08 05:49:37;;;;;;;3.00;2.85;;;15.70;59.00;;;;;;5074961;28;20047;-19
2022/03/08 05:52:03;;;;;;;3.38;3.13;;;15.70;59.00;;;;;;5075892;28;20072;-19
2022/03/08 05:54:28;;;;;;;3.00;2.90;;;15.70;59.10;;;;;;5076217;28;20046;-19
2022/03/08 05:56:54;;;;;;;3.05;2.92;;;15.70;59.10;;;;;;5061225;28;20104;-19
2022/03/08 05:59:20;;;;;;;4.00;3.80;;;15.60;59.10;;;;;;5075928;28;20036;-19
2022/03/08 06:01:45;;;;;;;3.83;3.58;;;15.60;59.20;;;;;;5064695;28;20513;-19
2022/03/08 06:04:11;;;;;;;3.38;3.17;;;15.60;59.80;;;;;;5058874;28;20057;-19
2022/03/08 06:06:37;;;;;;;3.30;3.10;;;15.60;60.30;;;;;;5064962;28;20536;-18
2022/03/08 06:09:02;;;;;;;3.88;3.63;;;15.60;60.70;;;;;;5066069;28;20033;-19
2022/03/08 06:11:28;;;;;;;3.55;3.35;;;15.60;61.10;;;;;;5057497;28;20044;-19
2022/03/08 06:13:53;;;;;;;3.30;3.00;;;15.60;61.30;;;;;;5077427;28;20546;-18
2022/03/08 06:16:19;;;;;;;3.63;3.22;;;15.60;61.90;;;;;;5075533;28;20072;-19
2022/03/08 06:18:45;;;;;;;5.95;3.55;;;15.70;61.80;;;;;;5067678;28;20045;-19
2022/03/08 06:21:10;;;;;;;3.83;3.53;;;15.60;61.80;;;;;;5071156;28;20057;-19
2022/03/08 06:23:36;;;;;;;4.13;3.80;;;15.60;61.30;;;;;;5063816;28;20060;-19
2022/03/08 06:26:02;;;;;;;3.28;3.08;;;15.70;62.10;;;;;;5068398;28;20075;-19
2022/03/08 06:28:27;;;;;;;4.35;3.88;;;15.70;61.20;;;;;;5060375;28;20047;-19
2022/03/08 06:30:53;;;;;;;3.67;3.30;;;15.70;61.00;;;;;;5063814;28;20512;-19
2022/03/08 06:33:18;;;;;;;4.82;3.38;;;15.70;61.10;;;;;;5056849;28;20065;-19
2022/03/08 06:35:44;;;;;;;3.42;3.22;;;15.70;61.70;;;;;;5066837;28;20044;-18
2022/03/08 06:38:10;;;;;;;3.92;3.72;;;15.60;60.70;;;;;;5070421;28;20037;-19
2022/03/08 06:40:35;;;;;;;4.85;3.20;;;15.70;60.90;;;;;;5061026;28;20044;-19
2022/03/08 06:43:01;;;;;;;3.53;3.33;;;15.60;61.60;;;;;;5066785;28;20089;-19
2022/03/08 06:45:26;;;;;;;4.57;3.97;;;15.60;60.90;;;;;;5068335;28;20078;-19
2022/03/08 06:47:52;;;;;;;5.63;4.00;;;15.60;62.20;;;;;;5061517;28;20045;-19
2022/03/08 06:50:17;;;;;;;8.02;4.22;;;15.70;62.80;;;;;;5065939;28;20088;-19
2022/03/08 06:52:43;;;;;;;7.90;4.32;;;15.70;63.40;;;;;;5074876;28;20103;-19
2022/03/08 06:55:10;;;;;;;9.77;4.63;;;15.70;62.80;;;;;;5056645;28;20098;-19
2022/03/08 06:57:37;;;;;;;8.30;4.47;;;15.60;63.30;;;;;;5059689;28;20384;-19
2022/03/08 07:00:05;;;;;;;10.32;4.55;;;15.60;62.90;;;;;;5068124;28;20120;-19
2022/03/08 07:02:30;;;;;;;8.52;4.57;;;15.60;62.90;;;;;;5055361;28;20040;-19
2022/03/08 07:04:56;;;;;;;5.90;4.50;;;15.60;62.80;;;;;;5053757;28;20059;-19
2022/03/08 07:07:22;;;;;;;10.07;5.05;;;15.60;62.70;;;;;;5054441;28;20071;-19
2022/03/08 07:09:47;;;;;;;9.88;5.05;;;15.60;62.50;;;;;;4713545;28;10000405;-19
2022/03/08 07:12:13;;;;;;;4.28;3.63;;;15.70;62.60;;;;;;5066514;28;20082;-18
2022/03/08 07:14:38;;;;;;;5.20;4.20;;;15.70;62.10;;;;;;5073348;28;20102;-19
2022/03/08 07:17:04;;;;;;;8.68;4.25;;;15.70;62.50;;;;;;5069521;28;20544;-19
2022/03/08 07:19:30;;;;;;;5.15;3.78;;;15.70;62.50;;;;;;5062807;28;20052;-19
2022/03/08 07:21:55;;;;;;;9.23;4.03;;;15.60;62.40;;;;;;5074867;28;20064;-19
2022/03/08 07:24:21;;;;;;;8.88;4.22;;;15.60;62.30;;;;;;5060939;28;20131;-19
2022/03/08 07:26:46;;;;;;;7.68;4.22;;;15.60;62.30;;;;;;5055125;28;20110;-19
2022/03/08 07:29:12;;;;;;;5.40;4.78;;;15.60;62.30;;;;;;5056565;28;20037;-19
2022/03/08 07:31:38;;;;;;;7.80;4.97;;;15.60;62.20;;;;;;5055217;28;20120;-19
2022/03/08 07:34:03;;;;;;;6.30;3.95;;;15.60;62.10;;;;;;5054454;28;20398;-19
2022/03/08 07:36:29;;;;;;;4.90;3.60;;;15.60;62.00;;;;;;5067461;28;20045;-19
2022/03/08 07:38:55;;;;;;;7.55;4.03;;;15.60;62.00;;;;;;5067594;28;20036;-19
2022/03/08 07:41:21;;;;;;;7.72;3.97;;;15.60;61.80;;;;;;5065447;28;20109;-19
2022/03/08 07:43:46;;;;;;;4.25;3.60;;;15.60;61.70;;;;;;5064776;28;20041;-19
2022/03/08 07:46:14;;;;;;;5.00;3.75;;;15.60;61.90;;;;;;5079936;28;20048;-19
2022/03/08 07:48:40;;;;;;;4.75;3.80;;;15.60;61.60;;;;;;5075009;28;20119;-19
2022/03/08 07:51:05;;;;;;;5.68;3.40;;;15.60;61.60;;;;;;5074405;28;20068;-19
2022/03/08 07:53:31;;;;;;;4.50;3.65;;;15.60;61.50;;;;;;5058258;28;20048;-19
2022/03/08 07:55:56;;;;;;;6.10;3.95;;;15.60;61.50;;;;;;5053914;28;20068;-19
2022/03/08 07:58:22;;;;;;;6.25;4.03;;;15.60;61.50;;;;;;5058112;28;20136;-19
2022/03/08 08:00:48;;;;;;;4.32;3.92;;;15.60;61.40;;;;;;5058822;28;20041;-19
2022/03/08 08:03:13;;;;;;;4.28;3.30;;;15.60;61.50;;;;;;5058122;28;20087;-19
2022/03/08 08:05:39;;;;;;;7.75;4.22;;;15.60;61.40;;;;;;5058596;28;20074;-19
2022/03/08 08:08:05;;;;;;;7.82;4.00;;;15.60;61.30;;;;;;5057790;28;20425;-19
2022/03/08 08:10:31;;;;;;;4.53;4.07;;;15.60;61.30;;;;;;5058608;28;20040;-18
2022/03/08 08:12:56;;;;;;;6.45;4.07;;;15.60;61.50;;;;;;5058149;28;20045;-19
2022/03/08 08:15:22;;;;;;;3.90;3.60;;;15.60;61.40;;;;;;5075233;28;20064;-19
2022/03/08 08:17:48;;;;;;;6.65;3.70;;;15.60;61.20;;;;;;5074514;28;20047;-19
2022/03/08 08:20:13;;;;;;;4.55;3.80;;;15.60;61.20;;;;;;5068711;28;20464;-19
2022/03/08 08:22:39;;;;;;;6.45;3.80;;;15.60;61.10;;;;;;5066713;28;20036;-19
2022/03/08 08:25:05;;;;;;;6.45;3.58;;;15.60;61.10;;;;;;5075347;28;20108;-19
2022/03/08 08:27:31;;;;;;;11.05;4.10;;;15.60;61.20;;;;;;5057805;28;20055;-19
2022/03/08 08:29:56;;;;;;;8.30;3.58;;;15.60;61.20;;;;;;5058044;28;20045;-19
2022/03/08 08:32:22;;;;;;;4.53;4.13;;;15.60;61.20;;;;;;5057771;28;20079;-19
2022/03/08 08:34:48;;;;;;;3.75;3.22;;;15.60;61.10;;;;;;5065752;28;20056;-19
2022/03/08 08:37:13;;;;;;;3.67;3.47;;;15.60;61.10;;;;;;5077172;28;20079;-19
2022/03/08 08:39:39;;;;;;;3.72;3.42;;;15.60;61.20;;;;;;5061557;28;20052;-19
2022/03/08 08:42:05;;;;;;;3.88;3.60;;;15.50;61.20;;;;;;5057963;28;20041;-19
2022/03/08 08:44:30;;;;;;;4.05;3.65;;;15.60;61.10;;;;;;5063585;28;20047;-19
2022/03/08 08:46:56;;;;;;;3.90;3.60;;;15.60;61.00;;;;;;5098206;28;20032;-19
2022/03/08 08:49:23;;;;;;;3.63;3.28;;;15.60;61.00;;;;;;5097442;28;20043;-19
2022/03/08 08:51:49;;;;;;;3.85;3.55;;;15.60;61.00;;;;;;5068705;28;20136;-19
2022/03/08 08:54:15;;;;;;;3.47;3.28;;;15.60;61.00;;;;;;5056719;28;20067;-19
2022/03/08 08:56:40;;;;;;;3.88;3.20;;;15.50;60.90;;;;;;5057785;28;20045;-19
2022/03/08 08:59:06;;;;;;;3.85;3.25;;;15.50;61.00;;;;;;5057662;28;20052;-19
2022/03/08 09:01:32;;;;;;;5.43;3.67;;;15.50;60.90;;;;;;5057078;28;20127;-19
2022/03/08 09:03:58;;;;;;;3.70;3.40;;;15.60;60.90;;;;;;5057724;28;20049;-19
2022/03/08 09:06:24;;;;;;;5.03;3.70;;;15.60;60.80;;;;;;5056695;28;20049;-18
2022/03/08 09:08:50;;;;;;;4.18;3.80;;;15.60;61.70;;;;;;5056740;28;20045;-19
2022/03/08 09:11:15;;;;;;;4.50;3.97;;;15.50;60.90;;;;;;5056971;28;20104;-19
2022/03/08 09:13:42;;;;;;;3.80;3.45;;;15.50;60.90;;;;;;5064344;28;20043;-19
2022/03/08 09:16:08;;;;;;;3.65;3.35;;;15.60;60.90;;;;;;5097060;28;20260;-19
2022/03/08 09:18:34;;;;;;;3.30;3.00;;;15.50;60.70;;;;;;5087714;28;20506;-19
2022/03/08 09:20:59;;;;;;;3.72;3.45;;;15.50;60.80;;;;;;5057117;28;20060;-19
2022/03/08 09:23:25;;;;;;;3.17;2.97;;;15.50;60.80;;;;;;5071318;28;20094;-19
2022/03/08 09:25:50;;;;;;;3.33;3.03;;;15.60;60.80;;;;;;5064349;28;20383;-19
2022/03/08 09:28:16;;;;;;;2.85;2.65;;;15.50;60.80;;;;;;5056492;28;20094;-19
2022/03/08 09:30:43;;;;;;;3.30;2.95;;;15.50;60.80;;;;;;5061982;28;20509;-19
2022/03/08 09:33:09;;;;;;;3.20;3.00;;;15.50;60.80;;;;;;5065740;28;20071;-19
2022/03/08 09:35:34;;;;;;;3.53;3.22;;;15.50;60.80;;;;;;5056663;28;20084;-19
2022/03/08 09:38:00;;;;;;;6.03;3.53;;;15.50;60.90;;;;;;5056715;28;20048;-18
2022/03/08 09:40:26;;;;;;;3.53;3.28;;;15.50;60.80;;;;;;5056337;28;20032;-19
2022/03/08 09:42:51;;;;;;;3.10;2.90;;;15.50;60.80;;;;;;5056921;28;20071;-19
2022/03/08 09:45:17;;;;;;;2.75;2.55;;;15.50;60.60;;;;;;5075722;28;20043;-19
2022/03/08 09:47:43;;;;;;;3.28;3.08;;;15.60;60.50;;;;;;5097099;28;20067;-19
2022/03/08 09:50:10;;;;;;;2.70;2.50;;;15.50;60.70;;;;;;5096917;28;20056;-19
2022/03/08 09:52:36;;;;;;;3.17;2.97;;;15.50;60.60;;;;;;5085133;28;20565;-19
2022/03/08 09:55:03;;;;;;;2.72;2.53;;;15.50;60.70;;;;;;5056704;28;20127;-19
2022/03/08 09:57:29;;;;;;;5.30;2.78;;;15.50;60.70;;;;;;5056006;28;20044;-19
2022/03/08 09:59:54;;;;;;;3.25;2.95;;;15.60;60.50;;;;;;5056648;28;20067;-19
2022/03/08 10:02:22;;;;;;;2.70;2.50;;;15.50;60.50;;;;;;5055955;28;20056;-19
2022/03/08 10:05:02;;;;;;;4.20;2.35;;;15.60;60.70;;;;;;5056553;28;20040;-19
2022/03/08 10:07:28;;;;;;;3.13;2.60;;;15.50;60.50;;;;;;5055599;28;20052;-19
2022/03/08 10:09:55;;;;;;;2.55;2.38;;;15.50;60.50;;;;;;5056379;28;20045;-19
2022/03/08 10:12:21;;;;;;;2.72;2.53;;;15.50;60.50;;;;;;5055728;28;20051;-19
2022/03/08 10:14:47;;;;;;;2.63;2.42;;;15.60;60.50;;;;;;5081464;28;20119;-19
2022/03/08 10:17:35;;;;;;;3.03;2.83;;;15.60;60.40;;;;;;5080014;28;20052;-19
2022/03/08 10:20:01;;;;;;;2.85;2.65;;;15.60;60.30;;;;;;5055234;28;20521;-19
2022/03/08 10:22:35;;;;;;;2.53;2.30;;;15.60;60.30;;;;;;5060012;28;20054;-19
2022/03/08 10:25:14;;;;;;;3.17;2.50;;;15.60;60.30;;;;;;5054872;28;20068;-19
2022/03/08 10:27:59;;;;;;;2.50;2.40;;;15.50;60.40;;;;;;5055530;28;20136;-19
2022/03/08 10:30:26;;;;;;;3.38;2.60;;;15.60;60.30;;;;;;5055344;28;20040;-19
2022/03/08 10:32:56;;;;;;;2.60;2.40;;;15.60;60.30;;;;;;5055773;28;20490;-19
2022/03/08 10:35:25;;;;;;;2.50;2.40;;;15.60;60.30;;;;;;5055305;28;20072;-19
2022/03/08 10:37:51;;;;;;;2.60;2.40;;;15.60;61.20;;;;;;5059276;28;20041;-19
2022/03/08 10:40:32;;;;;;;2.83;2.55;;;15.60;60.40;;;;;;5053777;28;20094;-19
2022/03/08 10:43:02;;;;;;;2.85;2.65;;;15.60;60.40;;;;;;5055774;28;20436;-19
2022/03/08 10:45:29;;;;;;;3.20;3.00;;;15.60;60.30;;;;;;5077829;28;20096;-19
2022/03/08 10:47:55;;;;;;;2.58;2.47;;;15.60;60.30;;;;;;5061062;28;20048;-19
2022/03/08 10:50:23;;;;;;;2.60;2.40;;;15.60;60.30;;;;;;5055027;28;20768;-18
2022/03/08 10:52:50;;;;;;;2.53;2.40;;;15.60;60.30;;;;;;5055397;28;20048;-19
2022/03/08 10:55:24;;;;;;;2.67;2.47;;;15.60;60.30;;;;;;5055073;28;20048;-19
2022/03/08 10:57:54;;;;;;;2.35;2.25;;;15.60;60.20;;;;;;5055506;28;20049;-19
2022/03/08 11:00:27;;;;;;;3.15;2.65;;;15.60;60.10;;;;;;5055026;28;20063;-19
2022/03/08 11:02:55;;;;;;;2.33;2.22;;;15.60;60.20;;;;;;5055473;28;20045;-19
2022/03/08 11:05:22;;;;;;;2.90;2.70;;;15.60;60.30;;;;;;5054783;28;20037;-19
2022/03/08 11:07:49;;;;;;;2.47;2.28;;;15.60;60.30;;;;;;5055138;28;20084;-19
2022/03/08 11:10:14;;;;;;;2.38;2.28;;;15.60;60.30;;;;;;5056065;28;20037;-19
2022/03/08 11:12:40;;;;;;;2.47;2.30;;;15.60;60.30;;;;;;5057964;28;20074;-18
2022/03/08 11:15:07;;;;;;;2.55;2.40;;;15.60;60.30;;;;;;5065315;28;20048;-19
2022/03/08 11:17:37;;;;;;;2.35;2.20;;;15.60;60.20;;;;;;5054453;28;20449;-19
2022/03/08 11:20:05;;;;;;;2.35;2.15;;;15.60;60.00;;;;;;5055170;28;20053;-19
2022/03/08 11:22:31;;;;;;;2.22;2.13;;;15.60;60.00;;;;;;4707419;28;9999702;-19
2022/03/08 11:24:56;;;;;;;3.60;2.15;;;15.60;60.00;;;;;;5066780;28;20037;-19
2022/03/08 11:27:22;;;;;;;2.50;2.30;;;15.60;60.10;;;;;;5067734;28;20056;-19
2022/03/08 11:29:49;;;;;;;2.42;2.30;;;15.70;60.10;;;;;;5064943;28;20393;-19
2022/03/08 11:32:18;;;;;;;2.47;2.28;;;15.60;60.00;;;;;;5076855;28;20044;-19
2022/03/08 11:35:00;;;;;;;2.00;1.90;;;15.70;60.00;;;;;;5072725;28;20596;-19
2022/03/08 11:37:26;;;;;;;2.60;2.40;;;15.70;60.10;;;;;;5072215;28;20101;-19
2022/03/08 11:40:08;;;;;;;3.90;2.22;;;15.60;60.30;;;;;;5075280;28;20036;-19
2022/03/08 11:42:34;;;;;;;2.00;1.90;;;15.70;60.20;;;;;;5067110;28;20041;-19
2022/03/08 11:45:11;;;;;;;2.25;2.15;;;15.60;60.30;;;;;;5072226;28;20505;-19
2022/03/08 11:47:54;;;;;;;3.00;2.80;;;15.60;60.40;;;;;;5077423;28;20048;-19
2022/03/08 11:50:33;;;;;;;2.05;1.95;;;15.60;60.60;;;;;;5072579;28;20071;-19
2022/03/08 11:53:13;;;;;;;3.10;2.13;;;15.70;60.80;;;;;;5066518;28;20056;-19
2022/03/08 11:55:43;;;;;;;2.35;2.17;;;15.70;60.70;;;;;;5073715;28;20045;-19
2022/03/08 11:58:13;;;;;;;2.20;2.10;;;15.70;61.00;;;;;;5070523;28;20052;-19
2022/03/08 12:00:44;;;;;;;2.05;1.95;;;15.70;62.00;;;;;;5073286;28;21110;-19
2022/03/08 12:03:13;;;;;;;2.17;2.08;;;15.70;61.30;;;;;;5074492;28;20051;-19
2022/03/08 12:05:44;;;;;;;2.00;1.90;;;15.70;61.30;;;;;;5074107;28;20052;-19
2022/03/08 12:08:23;;;;;;;2.15;2.03;;;15.70;61.20;;;;;;5072682;28;20052;-18
2022/03/08 12:10:49;;;;;;;1.98;1.88;;;15.70;61.30;;;;;;5074302;28;20132;-19
2022/03/08 12:13:15;;;;;;;2.00;1.90;;;15.70;61.30;;;;;;5065955;28;20729;-19
2022/03/08 12:16:06;;;;;;;2.75;2.28;;;15.70;61.30;;;;;;5080607;28;20040;-19
2022/03/08 12:18:49;;;;;;;2.00;1.90;;;15.80;61.20;;;;;;5068528;28;20051;-19
2022/03/08 12:21:21;;;;;;;3.70;2.30;;;15.80;61.20;;;;;;5072443;28;20036;-19
2022/03/08 12:23:56;;;;;;;1.70;1.60;;;15.70;61.30;;;;;;5073699;28;20263;-19
2022/03/08 12:26:38;;;;;;;1.90;1.80;;;15.70;61.20;;;;;;5073565;28;20041;-20
2022/03/08 12:29:15;;;;;;;2.55;2.20;;;15.70;61.70;;;;;;5062382;28;20100;-19
2022/03/08 12:31:59;;;;;;;2.03;1.92;;;15.80;61.30;;;;;;5072236;28;20079;-19
2022/03/08 12:34:37;;;;;;;3.53;2.80;;;15.70;61.30;;;;;;5066808;28;20476;-19
2022/03/08 12:37:06;;;;;;;5.05;2.00;;;15.80;61.50;;;;;;5063913;28;20049;-19
2022/03/08 12:39:48;;;;;;;2.53;2.10;;;15.70;61.40;;;;;;5068045;28;20049;-19
2022/03/08 12:42:20;;;;;;;2.97;1.80;;;15.80;61.40;;;;;;5062682;28;20048;-19
2022/03/08 12:45:08;;;;;;;2.20;2.00;;;15.70;61.50;;;;;;5068119;28;20060;-19